createdAt,value
2018-04-11T00:00:43.207Z,93
2018-04-11T00:01:43.174Z,93
2018-04-11T00:02:43.172Z,93
2018-04-11T00:03:43.185Z,93
2018-04-11T00:04:42.718Z,93
2018-04-11T00:05:43.220Z,93
2018-04-11T00:06:43.225Z,93
2018-04-11T00:07:42.875Z,93
2018-04-11T00:08:42.920Z,93
2018-04-11T00:09:42.917Z,93
2018-04-11T00:10:42.903Z,93
2018-04-11T00:11:42.724Z,93
2018-04-11T00:12:43.141Z,93
2018-04-11T00:13:43.174Z,93
2018-04-11T00:14:42.942Z,93
2018-04-11T00:15:42.938Z,93
2018-04-11T00:16:43.148Z,93
2018-04-11T00:17:43.181Z,93
2018-04-11T00:18:43.163Z,94
2018-04-11T00:19:42.936Z,94
2018-04-11T00:20:43.249Z,94
2018-04-11T00:21:43.235Z,94
2018-04-11T00:22:43.244Z,94
2018-04-11T00:23:42.829Z,94
2018-04-11T00:24:43.009Z,94
2018-04-11T00:25:42.994Z,94
2018-04-11T00:26:43.277Z,94
2018-04-11T00:27:42.777Z,94
2018-04-11T00:28:42.999Z,94
2018-04-11T00:29:43.012Z,94
2018-04-11T00:30:43.244Z,94
2018-04-11T00:31:43.263Z,94
2018-04-11T00:32:42.777Z,94
2018-04-11T00:33:42.815Z,94
2018-04-11T00:34:42.945Z,94
2018-04-11T00:35:43.168Z,94
2018-04-11T00:36:42.800Z,94
2018-04-11T00:37:43.334Z,94
2018-04-11T00:38:43.263Z,94
2018-04-11T00:39:42.978Z,94
2018-04-11T00:40:43.236Z,94
2018-04-11T00:41:43.218Z,94
2018-04-11T00:42:43.206Z,94
2018-04-11T00:43:43.034Z,94
2018-04-11T00:44:43.228Z,94
2018-04-11T00:45:42.992Z,94
2018-04-11T00:46:42.871Z,94
2018-04-11T00:47:43.241Z,94
2018-04-11T00:48:43.013Z,94
2018-04-11T00:49:43.272Z,94
2018-04-11T00:50:42.967Z,94
2018-04-11T00:51:42.815Z,94
2018-04-11T00:52:43.255Z,94
2018-04-11T00:53:43.299Z,94
2018-04-11T00:54:43.003Z,94
2018-04-11T00:55:42.994Z,94
2018-04-11T00:56:43.022Z,94
2018-04-11T00:57:43.279Z,94
2018-04-11T00:58:42.828Z,94
2018-04-11T00:59:42.848Z,94
2018-04-11T01:00:42.843Z,94
2018-04-11T01:01:42.827Z,94
2018-04-11T01:02:42.876Z,94
2018-04-11T01:03:42.981Z,94
2018-04-11T01:04:43.285Z,94
2018-04-11T01:05:42.852Z,94
2018-04-11T01:06:43.248Z,94
2018-04-11T01:07:43.025Z,94
2018-04-11T01:08:42.860Z,94
2018-04-11T01:09:42.827Z,94
2018-04-11T01:10:43.354Z,94
2018-04-11T01:11:43.319Z,95
2018-04-11T01:12:43.299Z,95
2018-04-11T01:13:43.272Z,95
2018-04-11T01:14:43.327Z,95
2018-04-11T01:15:43.297Z,95
2018-04-11T01:16:43.040Z,95
2018-04-11T01:17:43.319Z,95
2018-04-11T01:18:42.857Z,95
2018-04-11T01:19:43.317Z,95
2018-04-11T01:20:43.011Z,95
2018-04-11T01:21:42.885Z,95
2018-04-11T01:22:43.272Z,95
2018-04-11T01:23:43.065Z,95
2018-04-11T01:24:43.296Z,95
2018-04-11T01:25:42.852Z,95
2018-04-11T01:26:42.916Z,95
2018-04-11T01:27:43.082Z,95
2018-04-11T01:28:42.889Z,95
2018-04-11T01:29:43.333Z,95
2018-04-11T01:30:43.341Z,95
2018-04-11T01:31:43.385Z,95
2018-04-11T01:32:43.330Z,95
2018-04-11T01:33:42.917Z,95
2018-04-11T01:34:43.385Z,95
2018-04-11T01:35:43.327Z,95
2018-04-11T01:36:43.102Z,95
2018-04-11T01:37:43.362Z,95
2018-04-11T01:38:42.920Z,95
2018-04-11T01:39:43.431Z,95
2018-04-11T01:40:43.103Z,95
2018-04-11T01:41:43.352Z,95
2018-04-11T01:42:42.957Z,95
2018-04-11T01:43:43.358Z,95
2018-04-11T01:44:43.377Z,95
2018-04-11T01:45:43.103Z,95
2018-04-11T01:46:43.098Z,95
2018-04-11T01:47:42.910Z,95
2018-04-11T01:48:43.337Z,95
2018-04-11T01:49:43.098Z,95
2018-04-11T01:50:43.366Z,95
2018-04-11T01:51:43.151Z,95
2018-04-11T01:52:43.357Z,95
2018-04-11T01:53:43.453Z,95
2018-04-11T01:54:42.948Z,95
2018-04-11T01:55:43.385Z,95
2018-04-11T01:56:43.130Z,95
2018-04-11T01:57:43.092Z,95
2018-04-11T01:58:43.346Z,95
2018-04-11T01:59:43.106Z,95
2018-04-11T02:00:43.366Z,95
2018-04-11T02:01:43.372Z,95
2018-04-11T02:02:43.412Z,95
2018-04-11T02:03:43.350Z,95
2018-04-11T02:04:43.394Z,95
2018-04-11T02:05:43.400Z,95
2018-04-11T02:06:43.423Z,95
2018-04-11T02:07:43.332Z,95
2018-04-11T02:08:43.426Z,95
2018-04-11T02:09:43.056Z,95
2018-04-11T02:10:43.461Z,95
2018-04-11T02:11:42.987Z,95
2018-04-11T02:12:43.170Z,95
2018-04-11T02:13:43.405Z,95
2018-04-11T02:14:43.148Z,95
2018-04-11T02:15:43.430Z,95
2018-04-11T02:16:43.155Z,95
2018-04-11T02:17:43.400Z,95
2018-04-11T02:18:43.373Z,95
2018-04-11T02:19:42.956Z,95
2018-04-11T02:20:43.482Z,95
2018-04-11T02:21:43.435Z,95
2018-04-11T02:22:43.422Z,95
2018-04-11T02:23:43.141Z,95
2018-04-11T02:24:43.394Z,95
2018-04-11T02:25:43.426Z,95
2018-04-11T02:26:43.189Z,95
2018-04-11T02:27:43.148Z,95
2018-04-11T02:28:43.499Z,95
2018-04-11T02:29:43.177Z,95
2018-04-11T02:30:43.463Z,95
2018-04-11T02:31:43.438Z,95
2018-04-11T02:32:43.463Z,95
2018-04-11T02:33:43.453Z,95
2018-04-11T02:34:43.178Z,95
2018-04-11T02:35:43.218Z,95
2018-04-11T02:36:43.447Z,95
2018-04-11T02:37:43.216Z,95
2018-04-11T02:38:43.432Z,95
2018-04-11T02:39:43.163Z,95
2018-04-11T02:40:43.184Z,95
2018-04-11T02:41:43.176Z,95
2018-04-11T02:42:43.211Z,95
2018-04-11T02:43:43.439Z,95
2018-04-11T02:44:43.260Z,95
2018-04-11T02:45:43.485Z,95
2018-04-11T02:46:43.469Z,95
2018-04-11T02:47:43.412Z,95
2018-04-11T02:48:43.523Z,95
2018-04-11T02:49:43.080Z,95
2018-04-11T02:50:43.056Z,95
2018-04-11T02:51:43.483Z,95
2018-04-11T02:52:43.213Z,95
2018-04-11T02:53:43.247Z,95
2018-04-11T02:54:43.495Z,95
2018-04-11T02:55:43.557Z,95
2018-04-11T02:56:43.239Z,95
2018-04-11T02:57:43.242Z,95
2018-04-11T02:58:43.503Z,95
2018-04-11T02:59:43.071Z,95
2018-04-11T03:00:43.086Z,95
2018-04-11T03:01:43.255Z,95
2018-04-11T03:02:43.493Z,95
2018-04-11T03:03:43.532Z,95
2018-04-11T03:04:43.502Z,95
2018-04-11T03:05:43.156Z,95
2018-04-11T03:06:43.537Z,95
2018-04-11T03:07:43.117Z,95
2018-04-11T03:08:43.528Z,95
2018-04-11T03:09:43.505Z,95
2018-04-11T03:10:43.503Z,95
2018-04-11T03:11:43.516Z,95
2018-04-11T03:12:43.556Z,95
2018-04-11T03:13:43.515Z,95
2018-04-11T03:14:43.532Z,95
2018-04-11T03:15:43.481Z,95
2018-04-11T03:16:43.519Z,95
2018-04-11T03:17:43.485Z,95
2018-04-11T03:18:43.599Z,95
2018-04-11T03:19:43.283Z,95
2018-04-11T03:20:43.519Z,95
2018-04-11T03:21:43.515Z,95
2018-04-11T03:22:43.524Z,95
2018-04-11T03:23:43.276Z,95
2018-04-11T03:24:43.083Z,95
2018-04-11T03:25:43.538Z,95
2018-04-11T03:26:43.098Z,95
2018-04-11T03:27:43.633Z,95
2018-04-11T03:28:43.276Z,95
2018-04-11T03:29:43.102Z,95
2018-04-11T03:30:43.105Z,95
2018-04-11T03:31:43.117Z,95
2018-04-11T03:32:43.080Z,95
2018-04-11T03:33:43.270Z,95
2018-04-11T03:34:43.258Z,95
2018-04-11T03:35:43.058Z,95
2018-04-11T03:36:43.307Z,95
2018-04-11T03:37:43.541Z,95
2018-04-11T03:38:43.109Z,95
2018-04-11T03:39:43.147Z,95
2018-04-11T03:40:43.299Z,95
2018-04-11T03:41:43.590Z,95
2018-04-11T03:42:43.622Z,95
2018-04-11T03:43:43.152Z,95
2018-04-11T03:44:43.297Z,95
2018-04-11T03:45:43.311Z,95
2018-04-11T03:46:43.122Z,95
2018-04-11T03:47:43.088Z,95
2018-04-11T03:48:43.580Z,95
2018-04-11T03:49:43.275Z,95
2018-04-11T03:50:43.578Z,95
2018-04-11T03:51:43.593Z,95
2018-04-11T03:52:43.603Z,95
2018-04-11T03:53:43.535Z,95
2018-04-11T03:54:43.589Z,95
2018-04-11T03:55:43.610Z,95
2018-04-11T03:56:43.339Z,95
2018-04-11T03:57:43.578Z,95
2018-04-11T03:58:43.562Z,95
2018-04-11T03:59:43.146Z,95
2018-04-11T04:00:43.583Z,95
2018-04-11T04:01:43.662Z,95
2018-04-11T04:02:43.576Z,95
2018-04-11T04:03:43.599Z,95
2018-04-11T04:04:43.573Z,95
2018-04-11T04:05:43.616Z,95
2018-04-11T04:06:43.185Z,95
2018-04-11T04:07:43.231Z,95
2018-04-11T04:08:43.332Z,95
2018-04-11T04:09:43.569Z,95
2018-04-11T04:10:43.184Z,95
2018-04-11T04:11:43.369Z,95
2018-04-11T04:12:43.347Z,95
2018-04-11T04:13:43.589Z,95
2018-04-11T04:14:43.557Z,95
2018-04-11T04:15:43.324Z,95
2018-04-11T04:16:43.649Z,95
2018-04-11T04:17:43.161Z,95
2018-04-11T04:18:43.606Z,95
2018-04-11T04:19:43.743Z,95
2018-04-11T04:20:43.198Z,95
2018-04-11T04:21:43.698Z,95
2018-04-11T04:22:43.166Z,95
2018-04-11T04:23:43.341Z,95
2018-04-11T04:24:43.610Z,95
2018-04-11T04:25:43.675Z,95
2018-04-11T04:26:43.649Z,95
2018-04-11T04:27:43.630Z,95
2018-04-11T04:28:43.407Z,95
2018-04-11T04:29:43.620Z,95
2018-04-11T04:30:43.696Z,95
2018-04-11T04:31:43.431Z,95
2018-04-11T04:32:43.673Z,95
2018-04-11T04:33:43.600Z,95
2018-04-11T04:34:43.214Z,95
2018-04-11T04:35:43.695Z,95
2018-04-11T04:36:43.646Z,95
2018-04-11T04:37:43.674Z,95
2018-04-11T04:38:43.641Z,95
2018-04-11T04:39:43.650Z,95
2018-04-11T04:40:43.201Z,95
2018-04-11T04:41:43.697Z,95
2018-04-11T04:42:43.700Z,95
2018-04-11T04:43:43.411Z,95
2018-04-11T04:44:43.428Z,95
2018-04-11T04:45:43.236Z,95
2018-04-11T04:46:43.222Z,95
2018-04-11T04:47:43.684Z,95
2018-04-11T04:48:43.701Z,95
2018-04-11T04:49:43.246Z,95
2018-04-11T04:50:43.267Z,95
2018-04-11T04:51:43.236Z,95
2018-04-11T04:52:43.276Z,95
2018-04-11T04:53:43.448Z,95
2018-04-11T04:54:43.236Z,95
2018-04-11T04:55:43.291Z,95
2018-04-11T04:56:43.721Z,95
2018-04-11T04:57:43.711Z,95
2018-04-11T04:58:43.240Z,95
2018-04-11T04:59:43.396Z,95
2018-04-11T05:00:43.256Z,95
2018-04-11T05:01:43.272Z,95
2018-04-11T05:02:43.271Z,95
2018-04-11T05:03:43.273Z,96
2018-04-11T05:04:43.719Z,96
2018-04-11T05:05:43.315Z,96
2018-04-11T05:06:43.264Z,96
2018-04-11T05:07:43.527Z,96
2018-04-11T05:08:43.309Z,96
2018-04-11T05:09:43.498Z,96
2018-04-11T05:10:43.318Z,96
2018-04-11T05:11:43.730Z,96
2018-04-11T05:12:43.511Z,96
2018-04-11T05:13:43.807Z,96
2018-04-11T05:14:43.760Z,96
2018-04-11T05:15:43.473Z,96
2018-04-11T05:16:43.706Z,96
2018-04-11T05:17:43.489Z,96
2018-04-11T05:18:43.739Z,96
2018-04-11T05:19:43.712Z,96
2018-04-11T05:20:43.735Z,96
2018-04-11T05:21:43.494Z,96
2018-04-11T05:22:43.477Z,96
2018-04-11T05:23:43.723Z,96
2018-04-11T05:24:43.315Z,96
2018-04-11T05:25:43.732Z,96
2018-04-11T05:26:43.746Z,96
2018-04-11T05:27:43.516Z,96
2018-04-11T05:28:43.473Z,96
2018-04-11T05:29:43.734Z,96
2018-04-11T05:30:43.333Z,96
2018-04-11T05:31:43.507Z,96
2018-04-11T05:32:43.498Z,96
2018-04-11T05:33:43.369Z,96
2018-04-11T05:34:43.763Z,96
2018-04-11T05:35:43.325Z,96
2018-04-11T05:36:43.509Z,96
2018-04-11T05:37:43.811Z,96
2018-04-11T05:38:43.784Z,96
2018-04-11T05:39:43.864Z,96
2018-04-11T05:40:43.375Z,96
2018-04-11T05:41:43.809Z,96
2018-04-11T05:42:43.389Z,96
2018-04-11T05:43:43.540Z,96
2018-04-11T05:44:43.320Z,96
2018-04-11T05:45:43.762Z,96
2018-04-11T05:46:43.557Z,96
2018-04-11T05:47:43.533Z,96
2018-04-11T05:49:56.340Z,96
2018-04-11T05:50:56.094Z,96
2018-04-11T05:51:56.083Z,96
2018-04-11T05:52:56.101Z,96
2018-04-11T05:53:55.858Z,96
2018-04-11T05:54:55.897Z,96
2018-04-11T05:55:56.409Z,96
2018-04-11T05:56:56.306Z,96
2018-04-11T05:57:56.102Z,96
2018-04-11T05:58:55.867Z,96
2018-04-11T05:59:55.863Z,96
2018-04-11T06:00:56.308Z,96
2018-04-11T06:01:56.059Z,96
2018-04-11T06:02:56.333Z,96
2018-04-11T06:03:56.322Z,96
2018-04-11T06:04:56.388Z,96
2018-04-11T06:05:55.913Z,96
2018-04-11T06:06:55.896Z,96
2018-04-11T06:07:55.909Z,96
2018-04-11T06:08:56.310Z,96
2018-04-11T06:09:55.885Z,96
2018-04-11T06:10:56.069Z,96
2018-04-11T06:11:57.793Z,95
2018-04-11T06:12:56.414Z,95
2018-04-11T06:13:55.973Z,95
2018-04-11T06:14:56.102Z,95
2018-04-11T06:15:55.916Z,95
2018-04-11T06:16:56.068Z,95
2018-04-11T06:17:56.080Z,95
2018-04-11T06:18:55.967Z,95
2018-04-11T06:19:56.392Z,95
2018-04-11T06:20:55.984Z,95
2018-04-11T06:21:56.434Z,95
2018-04-11T06:22:56.453Z,95
2018-04-11T06:23:56.362Z,95
2018-04-11T06:24:56.463Z,95
2018-04-11T06:25:56.420Z,95
2018-04-11T06:26:56.115Z,95
2018-04-11T06:27:56.000Z,95
2018-04-11T06:28:56.427Z,95
2018-04-11T06:29:56.420Z,95
2018-04-11T06:30:56.016Z,95
2018-04-11T06:31:56.649Z,95
2018-04-11T06:32:56.831Z,95
2018-04-11T06:33:56.342Z,95
2018-04-11T06:34:56.403Z,95
2018-04-11T06:35:56.375Z,95
2018-04-11T06:36:56.185Z,94
2018-04-11T06:37:56.197Z,94
2018-04-11T06:38:56.519Z,94
2018-04-11T06:39:56.127Z,94
2018-04-11T06:40:56.128Z,94
2018-04-11T06:41:56.434Z,94
2018-04-11T06:42:56.430Z,94
2018-04-11T06:43:56.029Z,94
2018-04-11T06:44:56.426Z,94
2018-04-11T06:45:56.374Z,94
2018-04-11T06:46:56.430Z,94
2018-04-11T06:47:56.456Z,94
2018-04-11T06:48:56.543Z,94
2018-04-11T06:49:56.466Z,94
2018-04-11T06:50:56.256Z,94
2018-04-11T06:51:56.452Z,94
2018-04-11T06:52:57.378Z,93
2018-04-11T06:53:56.567Z,93
2018-04-11T06:54:56.157Z,92
2018-04-11T06:55:56.468Z,92
2018-04-11T06:56:56.173Z,92
2018-04-11T06:57:55.999Z,92
2018-04-11T06:58:56.136Z,92
2018-04-11T06:59:56.032Z,92
2018-04-11T07:00:56.413Z,92
2018-04-11T07:01:56.199Z,92
2018-04-11T07:02:56.447Z,91
2018-04-11T07:03:56.432Z,91
2018-04-11T07:04:56.429Z,91
2018-04-11T07:05:56.447Z,91
2018-04-11T07:06:58.548Z,91
2018-04-11T07:07:56.488Z,90
2018-04-11T07:08:56.601Z,90
2018-04-11T07:09:56.089Z,90
2018-04-11T07:10:56.436Z,90
2018-04-11T07:11:56.477Z,90
2018-04-11T07:12:56.060Z,90
2018-04-11T07:13:56.481Z,90
2018-04-11T07:14:56.183Z,90
2018-04-11T07:15:56.456Z,90
2018-04-11T07:16:56.471Z,90
2018-04-11T07:17:56.452Z,90
2018-04-11T07:18:56.036Z,90
2018-04-11T07:19:56.474Z,90
2018-04-11T07:20:56.217Z,90
2018-04-11T07:21:56.469Z,90
2018-04-11T07:22:56.257Z,90
2018-04-11T07:23:56.626Z,90
2018-04-11T07:24:56.716Z,90
2018-04-11T07:25:56.216Z,90
2018-04-11T07:26:56.726Z,90
2018-04-11T07:28:10.002Z,90
2018-04-11T07:29:11.210Z,90
2018-04-11T07:30:09.055Z,90
2018-04-11T07:31:00.741Z,90
2018-04-11T07:32:01.481Z,90
2018-04-11T07:33:04.035Z,90
2018-04-11T07:34:07.364Z,90
2018-04-11T07:34:56.892Z,90
2018-04-11T07:35:56.537Z,90
2018-04-11T07:36:57.932Z,90
2018-04-11T07:37:56.533Z,90
2018-04-11T07:38:56.248Z,90
2018-04-11T07:39:56.112Z,90
2018-04-11T07:40:56.556Z,90
2018-04-11T07:41:56.525Z,90
2018-04-11T07:42:56.276Z,90
2018-04-11T07:43:56.278Z,89
2018-04-11T07:44:56.526Z,89
2018-04-11T07:45:56.529Z,89
2018-04-11T07:46:56.505Z,89
2018-04-11T07:47:56.633Z,89
2018-04-11T07:48:56.537Z,89
2018-04-11T07:49:56.551Z,89
2018-04-11T07:50:56.554Z,90
2018-04-11T07:51:56.332Z,90
2018-04-11T07:52:56.578Z,90
2018-04-11T07:53:56.340Z,90
2018-04-11T07:54:56.618Z,90
2018-04-11T07:55:56.071Z,90
2018-04-11T07:56:56.101Z,90
2018-04-11T07:57:56.287Z,90
2018-04-11T07:58:56.340Z,90
2018-04-11T07:59:56.187Z,90
2018-04-11T08:00:56.347Z,90
2018-04-11T08:01:56.636Z,90
2018-04-11T08:02:56.213Z,90
2018-04-11T08:03:56.607Z,90
2018-04-11T08:04:56.128Z,90
2018-04-11T08:05:56.615Z,91
2018-04-11T08:06:56.327Z,91
2018-04-11T08:07:56.406Z,91
2018-04-11T08:08:56.659Z,91
2018-04-11T08:09:56.737Z,91
2018-04-11T08:10:56.311Z,91
2018-04-11T08:11:56.150Z,91
2018-04-11T08:12:56.185Z,91
2018-04-11T08:13:56.603Z,90
2018-04-11T08:14:56.383Z,90
2018-04-11T08:15:56.159Z,90
2018-04-11T08:16:56.567Z,90
2018-04-11T08:17:56.338Z,90
2018-04-11T08:18:56.178Z,89
2018-04-11T08:19:56.319Z,89
2018-04-11T08:20:56.163Z,89
2018-04-11T08:21:56.306Z,89
2018-04-11T08:22:56.641Z,89
2018-04-11T08:23:56.627Z,89
2018-04-11T08:24:56.324Z,89
2018-04-11T08:25:56.267Z,89
2018-04-11T08:26:56.357Z,88
2018-04-11T08:27:56.612Z,88
2018-04-11T08:28:56.639Z,88
2018-04-11T08:29:56.688Z,88
2018-04-11T08:30:56.165Z,88
2018-04-11T08:31:56.329Z,87
2018-04-11T08:32:56.596Z,87
2018-04-11T08:33:56.649Z,87
2018-04-11T08:34:56.671Z,87
2018-04-11T08:35:56.351Z,87
2018-04-11T08:36:56.625Z,87
2018-04-11T08:37:56.942Z,87
2018-04-11T08:38:56.667Z,88
2018-04-11T08:39:56.442Z,88
2018-04-11T08:40:56.661Z,88
2018-04-11T08:41:56.364Z,87
2018-04-11T08:42:56.343Z,87
2018-04-11T08:43:57.179Z,87
2018-04-11T08:44:56.371Z,87
2018-04-11T08:45:56.654Z,87
2018-04-11T08:46:56.646Z,86
2018-04-11T08:47:56.266Z,86
2018-04-11T08:48:56.628Z,86
2018-04-11T08:49:56.433Z,87
2018-04-11T08:50:56.378Z,87
2018-04-11T08:51:56.268Z,87
2018-04-11T08:52:56.634Z,87
2018-04-11T08:53:56.677Z,87
2018-04-11T08:54:56.399Z,86
2018-04-11T08:55:56.352Z,86
2018-04-11T08:56:56.734Z,86
2018-04-11T08:57:56.253Z,86
2018-04-11T08:58:56.635Z,86
2018-04-11T08:59:56.653Z,85
2018-04-11T09:00:56.412Z,85
2018-04-11T09:01:56.605Z,85
2018-04-11T09:02:56.634Z,85
2018-04-11T09:03:56.409Z,85
2018-04-11T09:04:56.700Z,85
2018-04-11T09:05:56.434Z,85
2018-04-11T09:06:56.397Z,85
2018-04-11T09:07:56.766Z,85
2018-04-11T09:08:56.464Z,85
2018-04-11T09:09:56.689Z,85
2018-04-11T09:10:56.392Z,85
2018-04-11T09:11:56.474Z,85
2018-04-11T09:12:56.396Z,84
2018-04-11T09:13:56.298Z,84
2018-04-11T09:14:56.721Z,84
2018-04-11T09:15:56.665Z,84
2018-04-11T09:16:56.885Z,84
2018-04-11T09:17:56.777Z,82
2018-04-11T09:18:56.492Z,82
2018-04-11T09:19:56.759Z,82
2018-04-11T09:20:56.745Z,82
2018-04-11T09:21:56.656Z,82
2018-04-11T09:22:56.486Z,81
2018-04-11T09:23:56.482Z,81
2018-04-11T09:24:56.702Z,81
2018-04-11T09:25:56.282Z,81
2018-04-11T09:26:56.701Z,81
2018-04-11T09:27:56.291Z,82
2018-04-11T09:28:56.516Z,82
2018-04-11T09:29:56.489Z,81
2018-04-11T09:30:56.307Z,81
2018-04-11T09:31:56.532Z,81
2018-04-11T09:32:56.897Z,79
2018-04-11T09:33:56.445Z,79
2018-04-11T09:34:56.302Z,78
2018-04-11T09:35:56.433Z,78
2018-04-11T09:36:56.704Z,78
2018-04-11T09:37:56.703Z,79
2018-04-11T09:38:56.768Z,79
2018-04-11T09:39:56.719Z,78
2018-04-11T09:40:56.369Z,78
2018-04-11T09:41:56.822Z,78
2018-04-11T09:42:56.296Z,78
2018-04-11T09:43:56.308Z,78
2018-04-11T09:44:56.724Z,78
2018-04-11T09:45:56.748Z,78
2018-04-11T09:46:56.499Z,78
2018-04-11T09:47:56.326Z,77
2018-04-11T09:48:56.778Z,77
2018-04-11T09:49:56.364Z,77
2018-04-11T09:50:56.486Z,80
2018-04-11T09:51:56.935Z,80
2018-04-11T09:52:56.745Z,80
2018-04-11T09:53:56.875Z,80
2018-04-11T09:54:56.812Z,80
2018-04-11T09:55:56.549Z,80
2018-04-11T09:56:56.728Z,80
2018-04-11T09:57:56.813Z,80
2018-04-11T09:58:56.329Z,80
2018-04-11T09:59:57.359Z,80
2018-04-11T10:00:56.342Z,79
2018-04-11T10:01:57.365Z,79
2018-04-11T10:02:56.769Z,78
2018-04-11T10:03:56.835Z,78
2018-04-11T10:04:56.797Z,78
2018-04-11T10:05:56.865Z,78
2018-04-11T10:06:56.626Z,78
2018-04-11T10:07:56.932Z,78
2018-04-11T10:08:56.802Z,78
2018-04-11T10:09:57.203Z,78
2018-04-11T10:10:56.861Z,80
2018-04-11T10:11:56.878Z,80
2018-04-11T10:12:56.783Z,80
2018-04-11T10:13:56.598Z,78
2018-04-11T10:14:56.378Z,78
2018-04-11T10:15:56.927Z,78
2018-04-11T10:16:56.560Z,78
2018-04-11T10:17:56.931Z,78
2018-04-11T10:18:56.838Z,80
2018-04-11T10:19:56.644Z,80
2018-04-11T10:20:56.816Z,80
2018-04-11T10:21:56.873Z,80
2018-04-11T10:22:56.840Z,80
2018-04-11T10:23:56.879Z,79
2018-04-11T10:24:56.681Z,79
2018-04-11T10:25:56.955Z,80
2018-04-11T10:26:56.837Z,80
2018-04-11T10:27:56.924Z,80
2018-04-11T10:28:56.622Z,79
2018-04-11T10:29:57.133Z,79
2018-04-11T10:30:56.649Z,80
2018-04-11T10:31:57.524Z,80
2018-04-11T10:32:56.906Z,80
2018-04-11T10:33:56.978Z,80
2018-04-11T10:34:56.841Z,80
2018-04-11T10:35:56.502Z,80
2018-04-11T10:36:56.855Z,80
2018-04-11T10:37:56.521Z,80
2018-04-11T10:38:56.881Z,80
2018-04-11T10:39:58.675Z,80
2018-04-11T10:40:56.834Z,81
2018-04-11T10:41:56.576Z,81
2018-04-11T10:42:56.666Z,81
2018-04-11T10:43:56.893Z,81
2018-04-11T10:44:57.054Z,81
2018-04-11T10:45:57.079Z,81
2018-04-11T10:46:56.981Z,81
2018-04-11T10:47:57.023Z,81
2018-04-11T10:48:56.659Z,80
2018-04-11T10:49:57.145Z,80
2018-04-11T10:50:56.445Z,80
2018-04-11T10:51:57.156Z,78
2018-04-11T10:52:56.686Z,78
2018-04-11T10:54:16.535Z,77
2018-04-11T10:54:57.249Z,77
2018-04-11T10:55:56.529Z,77
2018-04-11T10:56:56.838Z,78
2018-04-11T10:57:56.473Z,78
2018-04-11T10:58:57.546Z,79
2018-04-11T10:59:56.539Z,79
2018-04-11T11:00:56.936Z,79
2018-04-11T11:01:56.931Z,78
2018-04-11T11:02:56.910Z,78
2018-04-11T11:03:57.018Z,75
2018-04-11T11:04:56.487Z,75
2018-04-11T11:05:56.586Z,75
2018-04-11T11:06:56.990Z,75
2018-04-11T11:07:57.531Z,75
2018-04-11T11:08:56.447Z,75
2018-04-11T11:09:57.446Z,75
2018-04-11T11:10:56.912Z,75
2018-04-11T11:11:56.748Z,74
2018-04-11T11:12:56.433Z,74
2018-04-11T11:13:56.990Z,74
2018-04-11T11:14:56.886Z,74
2018-04-11T11:15:57.004Z,74
2018-04-11T11:16:56.912Z,74
2018-04-11T11:17:56.996Z,74
2018-04-11T11:18:56.891Z,74
2018-04-11T11:19:56.952Z,73
2018-04-11T11:20:56.949Z,73
2018-04-11T11:21:56.737Z,74
2018-04-11T11:22:56.969Z,74
2018-04-11T11:23:56.974Z,74
2018-04-11T11:24:56.463Z,72
2018-04-11T11:25:57.637Z,72
2018-04-11T11:26:56.456Z,73
2018-04-11T11:27:56.561Z,73
2018-04-11T11:28:56.885Z,73
2018-04-11T11:29:57.042Z,70
2018-04-11T11:30:56.499Z,70
2018-04-11T11:31:56.576Z,70
2018-04-11T11:32:56.525Z,70
2018-04-11T11:33:57.259Z,70
2018-04-11T11:34:56.505Z,72
2018-04-11T11:35:57.119Z,72
2018-04-11T11:36:57.004Z,72
2018-04-11T11:37:57.601Z,72
2018-04-11T11:38:56.534Z,72
2018-04-11T11:39:56.576Z,70
2018-04-11T11:40:57.023Z,70
2018-04-11T11:41:56.609Z,69
2018-04-11T11:42:56.940Z,69
2018-04-11T11:43:57.023Z,69
2018-04-11T11:44:56.674Z,69
2018-04-11T11:45:56.665Z,69
2018-04-11T11:46:57.061Z,69
2018-04-11T11:47:57.011Z,70
2018-04-11T11:48:57.006Z,70
2018-04-11T11:49:56.759Z,68
2018-04-11T11:50:56.545Z,68
2018-04-11T11:51:56.622Z,68
2018-04-11T11:52:56.547Z,69
2018-04-11T11:53:56.697Z,69
2018-04-11T11:54:57.047Z,69
2018-04-11T11:55:56.526Z,69
2018-04-11T11:56:57.023Z,69
2018-04-11T11:57:57.008Z,69
2018-04-11T11:58:57.039Z,69
2018-04-11T11:59:56.539Z,66
2018-04-11T12:00:57.015Z,66
2018-04-11T12:01:57.076Z,66
2018-04-11T12:02:56.563Z,66
2018-04-11T12:03:56.597Z,66
2018-04-11T12:04:56.771Z,67
2018-04-11T12:05:57.065Z,67
2018-04-11T12:06:57.107Z,67
2018-04-11T12:07:56.593Z,65
2018-04-11T12:08:56.625Z,65
2018-04-11T12:09:56.592Z,64
2018-04-11T12:10:56.837Z,64
2018-04-11T12:11:57.114Z,64
2018-04-11T12:12:57.801Z,65
2018-04-11T12:13:57.083Z,65
2018-04-11T12:14:56.788Z,65
2018-04-11T12:15:56.609Z,63
2018-04-11T12:16:57.079Z,63
2018-04-11T12:17:56.601Z,63
2018-04-11T12:18:57.116Z,63
2018-04-11T12:19:56.756Z,63
2018-04-11T12:20:57.000Z,63
2018-04-11T12:21:56.814Z,63
2018-04-11T12:22:56.759Z,62
2018-04-11T12:23:56.612Z,62
2018-04-11T12:24:57.107Z,62
2018-04-11T12:25:56.774Z,60
2018-04-11T12:26:56.614Z,60
2018-04-11T12:27:57.048Z,59
2018-04-11T12:28:56.647Z,59
2018-04-11T12:29:57.121Z,59
2018-04-11T12:30:56.582Z,59
2018-04-11T12:31:56.617Z,59
2018-04-11T12:32:57.042Z,59
2018-04-11T12:33:57.073Z,59
2018-04-11T12:34:57.032Z,59
2018-04-11T12:35:57.074Z,59
2018-04-11T12:36:56.639Z,59
2018-04-11T12:37:57.096Z,59
2018-04-11T12:38:56.803Z,59
2018-04-11T12:39:57.067Z,59
2018-04-11T12:40:57.073Z,59
2018-04-11T12:41:57.108Z,59
2018-04-11T12:42:56.649Z,59
2018-04-11T12:43:57.070Z,59
2018-04-11T12:44:57.089Z,59
2018-04-11T12:45:57.123Z,59
2018-04-11T12:46:57.206Z,59
2018-04-11T12:47:57.106Z,59
2018-04-11T12:48:56.671Z,59
2018-04-11T12:49:56.635Z,59
2018-04-11T12:50:57.089Z,58
2018-04-11T12:51:57.079Z,58
2018-04-11T12:52:57.096Z,58
2018-04-11T12:53:57.090Z,57
2018-04-11T12:54:56.681Z,57
2018-04-11T12:55:57.067Z,57
2018-04-11T12:56:56.680Z,57
2018-04-11T12:57:57.133Z,57
2018-04-11T12:58:56.807Z,56
2018-04-11T12:59:57.093Z,56
2018-04-11T13:00:57.119Z,55
2018-04-11T13:01:57.091Z,55
2018-04-11T13:02:57.210Z,55
2018-04-11T13:03:56.742Z,54
2018-04-11T13:04:57.068Z,54
2018-04-11T13:05:57.046Z,51
2018-04-11T13:06:57.044Z,51
2018-04-11T13:07:56.640Z,51
2018-04-11T13:08:57.112Z,51
2018-04-11T13:09:57.172Z,51
2018-04-11T13:10:56.756Z,51
2018-04-11T13:11:56.682Z,51
2018-04-11T13:12:56.815Z,51
2018-04-11T13:13:57.125Z,52
2018-04-11T13:14:57.107Z,52
2018-04-11T13:15:57.093Z,52
2018-04-11T13:16:57.157Z,51
2018-04-11T13:17:56.691Z,51
2018-04-11T13:18:57.196Z,51
2018-04-11T13:19:56.899Z,51
2018-04-11T13:20:57.194Z,51
2018-04-11T13:21:56.907Z,53
2018-04-11T13:22:56.884Z,53
2018-04-11T13:23:56.936Z,54
2018-04-11T13:24:57.156Z,54
2018-04-11T13:25:56.935Z,54
2018-04-11T13:26:57.177Z,55
2018-04-11T13:27:57.123Z,55
2018-04-11T13:28:57.182Z,54
2018-04-11T13:29:57.155Z,54
2018-04-11T13:30:57.211Z,54
2018-04-11T13:31:56.734Z,54
2018-04-11T13:32:57.121Z,54
2018-04-11T13:33:56.902Z,55
2018-04-11T13:34:56.696Z,55
2018-04-11T13:35:56.686Z,55
2018-04-11T13:36:56.694Z,55
2018-04-11T13:37:57.132Z,55
2018-04-11T13:38:56.873Z,55
2018-04-11T13:39:56.664Z,55
2018-04-11T13:40:56.771Z,55
2018-04-11T13:41:57.171Z,55
2018-04-11T13:42:56.715Z,55
2018-04-11T13:43:56.888Z,54
2018-04-11T13:44:56.887Z,54
2018-04-11T13:45:56.924Z,54
2018-04-11T13:46:56.914Z,55
2018-04-11T13:47:57.160Z,55
2018-04-11T13:48:57.172Z,55
2018-04-11T13:49:56.708Z,56
2018-04-11T13:50:57.164Z,56
2018-04-11T13:51:56.930Z,56
2018-04-11T13:52:57.171Z,56
2018-04-11T13:53:57.199Z,56
2018-04-11T13:54:56.780Z,56
2018-04-11T13:55:56.899Z,56
2018-04-11T13:56:56.733Z,55
2018-04-11T13:57:56.935Z,55
2018-04-11T13:58:56.725Z,55
2018-04-11T13:59:57.192Z,55
2018-04-11T14:00:57.177Z,55
2018-04-11T14:01:59.765Z,55
2018-04-11T14:02:57.581Z,55
2018-04-11T14:03:57.370Z,55
2018-04-11T14:05:02.291Z,55
2018-04-11T14:05:59.895Z,55
2018-04-11T14:06:57.038Z,55
2018-04-11T14:07:57.297Z,55
2018-04-11T14:08:56.861Z,55
2018-04-11T14:09:57.330Z,56
2018-04-11T14:10:56.992Z,56
2018-04-11T14:11:56.793Z,55
2018-04-11T14:12:57.234Z,55
2018-04-11T14:13:57.334Z,55
2018-04-11T14:14:56.955Z,55
2018-04-11T14:15:56.783Z,55
2018-04-11T14:16:57.290Z,55